createdAt,value
2018-11-21T00:02:15.572Z,4.81
2018-11-21T00:04:54.818Z,4.76
2018-11-21T00:07:27.331Z,4.72
2018-11-21T00:16:07.443Z,4.84
2018-11-21T00:18:35.510Z,4.80
2018-11-21T00:21:03.628Z,4.77
2018-11-21T00:23:31.743Z,4.78
2018-11-21T00:25:59.819Z,4.66
2018-11-21T00:28:27.896Z,4.71
2018-11-21T00:30:55.991Z,4.76
2018-11-21T00:33:24.067Z,4.73
2018-11-21T00:35:52.134Z,4.64
2018-11-21T00:38:20.235Z,4.66
2018-11-21T00:40:48.367Z,4.53
2018-11-21T00:43:16.447Z,4.58
2018-11-21T00:45:44.507Z,4.52
2018-11-21T00:48:12.639Z,4.47
2018-11-21T00:50:40.729Z,4.32
2018-11-21T00:53:08.808Z,4.27
2018-11-21T00:55:36.883Z,4.29
2018-11-21T00:58:05.144Z,4.22
2018-11-21T01:00:33.210Z,4.09
2018-11-21T01:03:01.316Z,4.15
2018-11-21T01:05:29.413Z,4.16
2018-11-21T01:07:57.477Z,4.12
2018-11-21T01:10:25.527Z,4.06
2018-11-21T01:12:53.596Z,4.05
2018-11-21T01:15:21.688Z,3.93
2018-11-21T01:17:49.789Z,3.94
2018-11-21T01:20:17.864Z,3.84
2018-11-21T01:22:45.957Z,3.82
2018-11-21T01:25:14.030Z,3.88
2018-11-21T01:27:42.193Z,3.82
2018-11-21T01:30:10.249Z,3.81
2018-11-21T01:32:38.760Z,3.77
2018-11-21T01:35:07.237Z,3.81
2018-11-21T01:37:35.369Z,3.80
2018-11-21T01:40:03.602Z,3.78
2018-11-21T01:42:31.690Z,3.72
2018-11-21T01:44:59.758Z,3.79
2018-11-21T01:47:27.806Z,3.73
2018-11-21T01:49:55.849Z,3.78
2018-11-21T01:52:23.940Z,3.78
2018-11-21T01:54:52.022Z,3.76
2018-11-21T01:57:20.105Z,3.81
2018-11-21T01:59:48.243Z,3.78
2018-11-21T02:02:16.301Z,3.67
2018-11-21T02:04:44.366Z,3.73
2018-11-21T02:07:12.420Z,3.77
2018-11-21T02:09:40.927Z,3.77
2018-11-21T02:12:08.983Z,3.69
2018-11-21T02:14:37.064Z,3.67
2018-11-21T02:17:05.280Z,3.71
2018-11-21T02:19:33.353Z,3.64
2018-11-21T02:22:01.406Z,3.57
2018-11-21T02:24:29.512Z,3.45
2018-11-21T02:26:57.568Z,3.49
2018-11-21T02:29:25.638Z,3.49
2018-11-21T02:31:53.725Z,3.51
2018-11-21T02:34:21.910Z,3.47
2018-11-21T02:36:49.892Z,3.35
2018-11-21T02:39:17.945Z,3.37
2018-11-21T02:41:45.994Z,3.41
2018-11-21T02:44:14.075Z,3.40
2018-11-21T02:46:42.177Z,3.35
2018-11-21T02:49:10.260Z,3.55
2018-11-21T02:51:38.725Z,3.49
2018-11-21T02:54:06.796Z,3.50
2018-11-21T02:57:13.699Z,3.41
2018-11-21T02:59:41.861Z,3.43
2018-11-21T03:02:09.929Z,3.33
2018-11-21T03:04:38.116Z,3.28
2018-11-21T03:07:06.394Z,3.23
2018-11-21T03:09:34.898Z,3.22
2018-11-21T03:12:02.957Z,3.15
2018-11-21T03:14:31.051Z,3.09
2018-11-21T03:16:59.136Z,3.04
2018-11-21T03:19:27.213Z,3.07
2018-11-21T03:21:55.289Z,3.02
2018-11-21T03:24:23.383Z,2.96
2018-11-21T03:26:52.128Z,2.98
2018-11-21T03:29:20.270Z,2.94
2018-11-21T03:31:48.354Z,3.00
2018-11-21T03:34:16.399Z,2.86
2018-11-21T03:37:03.582Z,2.78
2018-11-21T03:39:31.663Z,2.79
2018-11-21T03:41:59.727Z,3.02
2018-11-21T03:44:27.788Z,2.95
2018-11-21T03:46:55.871Z,2.87
2018-11-21T03:49:23.973Z,2.87
2018-11-21T03:51:52.036Z,2.97
2018-11-21T03:54:20.132Z,2.87
2018-11-21T03:56:48.209Z,2.77
2018-11-21T03:59:16.256Z,2.80
2018-11-21T04:01:44.317Z,2.81
2018-11-21T04:04:12.412Z,2.93
2018-11-21T04:06:40.471Z,2.91
2018-11-21T04:09:10.219Z,2.83
2018-11-21T04:11:38.295Z,2.76
2018-11-21T04:14:06.413Z,2.73
2018-11-21T04:16:34.484Z,2.82
2018-11-21T04:19:02.525Z,2.77
2018-11-21T04:21:30.580Z,2.67
2018-11-21T04:23:58.651Z,2.65
2018-11-21T04:26:26.706Z,2.62
2018-11-21T04:28:54.782Z,2.69
2018-11-21T04:31:22.841Z,2.57
2018-11-21T04:33:50.921Z,2.56
2018-11-21T04:36:18.979Z,2.49
2018-11-21T04:38:47.108Z,2.50
2018-11-21T04:41:15.109Z,2.45
2018-11-21T04:43:43.185Z,2.42
2018-11-21T04:46:11.249Z,2.49
2018-11-21T04:48:39.319Z,2.44
2018-11-21T04:51:07.375Z,2.35
2018-11-21T04:53:35.492Z,2.41
2018-11-21T04:56:03.552Z,2.43
2018-11-21T04:58:31.636Z,2.35
2018-11-21T05:00:59.692Z,2.27
2018-11-21T05:03:27.761Z,2.23
2018-11-21T05:05:55.848Z,2.26
2018-11-21T05:08:23.907Z,2.24
2018-11-21T05:10:51.990Z,2.21
2018-11-21T05:13:20.071Z,2.20
2018-11-21T05:15:48.110Z,2.13
2018-11-21T05:18:16.176Z,2.31
2018-11-21T05:20:44.237Z,2.27
2018-11-21T05:23:12.289Z,2.22
2018-11-21T05:25:40.347Z,2.23
2018-11-21T05:28:08.421Z,2.32
2018-11-21T05:30:36.477Z,2.32
2018-11-21T05:33:04.708Z,2.33
2018-11-21T05:35:32.779Z,2.25
2018-11-21T05:38:00.839Z,2.30
2018-11-21T05:40:28.928Z,2.17
2018-11-21T05:42:57.024Z,2.14
2018-11-21T05:45:25.078Z,2.24
2018-11-21T05:47:53.139Z,2.28
2018-11-21T05:50:21.201Z,2.21
2018-11-21T05:52:49.286Z,2.28
2018-11-21T05:55:17.371Z,2.21
2018-11-21T05:57:45.432Z,2.20
2018-11-21T06:00:14.157Z,2.30
2018-11-21T06:02:42.227Z,2.25
2018-11-21T06:05:11.395Z,2.29
2018-11-21T06:07:39.605Z,2.30
2018-11-21T06:10:09.680Z,2.44
2018-11-21T06:12:38.036Z,2.44
2018-11-21T06:15:06.624Z,2.44
2018-11-21T06:17:34.697Z,2.38
2018-11-21T06:20:02.759Z,2.49
2018-11-21T06:22:30.872Z,2.42
2018-11-21T06:24:58.937Z,2.43
2018-11-21T06:27:26.977Z,2.36
2018-11-21T06:29:55.048Z,2.42
2018-11-21T06:32:23.155Z,2.46
2018-11-21T06:34:51.260Z,2.51
2018-11-21T06:37:19.298Z,2.49
2018-11-21T06:39:47.363Z,2.56
2018-11-21T06:42:15.420Z,2.58
2018-11-21T06:44:43.502Z,2.63
2018-11-21T06:47:11.557Z,2.56
2018-11-21T06:49:39.628Z,2.62
2018-11-21T06:52:07.786Z,2.63
2018-11-21T06:54:35.856Z,2.66
2018-11-21T06:57:03.970Z,2.55
2018-11-21T06:59:32.022Z,2.70
2018-11-21T07:02:00.097Z,2.71
2018-11-21T07:04:28.169Z,2.69
2018-11-21T07:06:56.237Z,2.76
2018-11-21T07:09:24.297Z,2.85
2018-11-21T07:11:52.361Z,2.78
2018-11-21T07:14:20.427Z,2.93
2018-11-21T07:16:48.498Z,3.01
2018-11-21T07:19:16.556Z,3.05
2018-11-21T07:21:44.658Z,3.06
2018-11-21T07:24:12.723Z,3.02
2018-11-21T07:26:40.783Z,3.11
2018-11-21T07:29:08.925Z,3.21
2018-11-21T07:31:37.000Z,3.24
2018-11-21T07:34:05.398Z,3.26
2018-11-21T07:36:33.864Z,3.13
2018-11-21T07:39:01.957Z,3.16
2018-11-21T07:41:30.058Z,3.22
2018-11-21T07:43:58.147Z,3.16
2018-11-21T07:46:26.244Z,3.24
2018-11-21T07:48:54.303Z,3.28
2018-11-21T07:51:22.416Z,3.24
2018-11-21T07:53:50.509Z,3.28
2018-11-21T07:56:58.586Z,3.27
2018-11-21T08:00:05.502Z,3.40
2018-11-21T08:02:37.023Z,3.48
2018-11-21T08:05:11.118Z,3.55
2018-11-21T08:10:52.409Z,3.53
2018-11-21T08:13:36.618Z,3.51
2018-11-21T08:16:23.951Z,3.42
2018-11-21T08:19:11.151Z,3.39
2018-11-21T08:21:58.357Z,3.47
2018-11-21T08:24:37.569Z,3.47
2018-11-21T08:27:24.774Z,3.25
2018-11-21T08:29:52.834Z,3.28
2018-11-21T08:32:20.916Z,3.43
2018-11-21T08:34:49.000Z,3.34
2018-11-21T08:37:17.093Z,3.34
2018-11-21T08:39:45.177Z,3.44
2018-11-21T08:42:13.249Z,3.50
2018-11-21T08:47:36.899Z,3.52
2018-11-21T08:50:07.852Z,3.51
2018-11-21T08:52:35.952Z,3.55
2018-11-21T08:55:08.911Z,3.59
2018-11-21T08:57:32.599Z,3.60
2018-11-21T09:00:00.668Z,3.59
2018-11-21T09:02:28.768Z,3.59
2018-11-21T09:04:56.885Z,3.66
2018-11-21T09:07:24.977Z,3.76
2018-11-21T09:09:53.060Z,3.78
2018-11-21T09:12:21.136Z,3.79
2018-11-21T09:14:49.244Z,3.86
2018-11-21T09:17:17.334Z,3.86
2018-11-21T09:19:45.453Z,3.89
2018-11-21T09:22:13.574Z,3.89
2018-11-21T09:24:41.671Z,3.96
2018-11-21T09:27:09.750Z,3.91
2018-11-21T09:29:37.884Z,3.97
2018-11-21T09:32:06.042Z,3.91
2018-11-21T09:34:34.214Z,3.93
2018-11-21T09:37:02.389Z,3.96
2018-11-21T09:39:30.482Z,3.96
2018-11-21T09:41:58.555Z,3.89
2018-11-21T09:44:26.652Z,4.03
2018-11-21T09:46:54.746Z,4.06
2018-11-21T09:49:22.853Z,4.09
2018-11-21T09:51:50.928Z,4.16
2018-11-21T09:54:19.045Z,4.25
2018-11-21T09:56:47.116Z,4.26
2018-11-21T09:59:15.188Z,4.38
2018-11-21T10:02:28.190Z,4.48
2018-11-21T10:04:56.313Z,4.41
2018-11-21T10:07:24.396Z,4.51
2018-11-21T10:09:52.794Z,4.64
2018-11-21T10:12:20.883Z,4.67
2018-11-21T10:14:48.966Z,4.67
2018-11-21T10:17:17.043Z,4.78
2018-11-21T10:19:45.132Z,4.80
2018-11-21T10:22:13.206Z,4.78
2018-11-21T10:24:41.314Z,4.69
2018-11-21T10:27:09.406Z,4.71
2018-11-21T10:29:37.497Z,4.67
2018-11-21T10:32:05.681Z,4.77
2018-11-21T10:34:33.933Z,4.72
2018-11-21T10:37:01.911Z,4.77
2018-11-21T10:39:29.988Z,4.78
2018-11-21T10:41:58.073Z,4.83
2018-11-21T10:44:26.143Z,4.85
2018-11-21T10:46:54.226Z,4.99
2018-11-21T10:49:22.306Z,5.06
2018-11-21T10:51:50.396Z,5.05
2018-11-21T10:54:18.480Z,5.03
2018-11-21T10:56:46.795Z,5.11
2018-11-21T10:59:14.951Z,5.15
2018-11-21T11:19:59.901Z,5.31
2018-11-21T11:22:47.106Z,5.25
2018-11-21T11:28:37.628Z,5.23
2018-11-21T11:40:27.096Z,5.27
2018-11-21T11:43:14.291Z,5.15
2018-11-21T11:46:01.501Z,5.14
2018-11-21T11:48:39.413Z,5.17
2018-11-21T11:51:26.651Z,5.21
2018-11-21T11:54:13.832Z,5.22
2018-11-21T11:57:02.702Z,5.13
2018-11-21T11:59:49.901Z,5.12
2018-11-21T12:02:37.140Z,5.21
2018-11-21T12:05:25.773Z,5.23
2018-11-21T12:08:14.481Z,5.28
2018-11-21T12:11:01.663Z,5.34
2018-11-21T12:13:48.872Z,5.35
2018-11-21T12:16:36.171Z,5.30
2018-11-21T12:19:23.385Z,5.36
2018-11-21T12:22:10.618Z,5.35
2018-11-21T12:24:57.815Z,5.43
2018-11-21T12:27:45.023Z,5.39
2018-11-21T12:33:28.727Z,5.60
2018-11-21T12:39:00.363Z,5.75
2018-11-21T12:41:47.552Z,5.82
2018-11-21T12:47:27.424Z,5.93
2018-11-21T12:50:14.611Z,5.87
2018-11-21T12:53:01.830Z,5.79
2018-11-21T12:55:49.118Z,5.77
2018-11-21T12:58:36.256Z,5.77
2018-11-21T13:01:23.445Z,5.77
2018-11-21T13:04:10.652Z,5.75
2018-11-21T13:06:57.834Z,5.75
2018-11-21T13:09:45.072Z,5.72
2018-11-21T13:12:32.270Z,5.74
2018-11-21T13:15:43.471Z,5.65
2018-11-21T13:18:21.371Z,5.75
2018-11-21T13:21:08.550Z,5.72
2018-11-21T13:23:55.755Z,5.71
2018-11-21T13:26:42.931Z,5.78
2018-11-21T13:29:30.135Z,5.71
2018-11-21T13:32:10.782Z,5.70
2018-11-21T13:34:48.920Z,5.67
2018-11-21T13:37:36.153Z,5.58
2018-11-21T13:43:33.565Z,5.64
2018-11-21T13:46:28.962Z,5.68
2018-11-21T13:49:17.437Z,5.71
2018-11-21T13:54:51.687Z,5.64
2018-11-21T14:00:43.665Z,5.70
2018-11-21T14:03:14.651Z,5.70
2018-11-21T14:06:03.451Z,5.80
2018-11-21T14:08:31.506Z,5.86
2018-11-21T14:10:59.597Z,5.83
2018-11-21T14:13:27.652Z,5.78
2018-11-21T14:15:55.809Z,5.92
2018-11-21T14:18:23.915Z,5.83
2018-11-21T14:20:52.000Z,5.86
2018-11-21T14:23:20.075Z,5.68
2018-11-21T14:25:48.167Z,5.61
2018-11-21T14:28:16.226Z,5.55
2018-11-21T14:30:44.295Z,5.53
2018-11-21T14:33:12.357Z,5.56
2018-11-21T14:35:40.435Z,5.57
2018-11-21T14:38:08.500Z,5.65
2018-11-21T14:40:36.587Z,5.67
2018-11-21T14:43:04.682Z,5.58
2018-11-21T14:45:32.750Z,5.64
2018-11-21T14:48:00.844Z,5.60
2018-11-21T14:50:30.964Z,5.64
2018-11-21T14:52:59.034Z,5.52
2018-11-21T14:55:27.199Z,5.59
2018-11-21T14:57:55.249Z,5.60
2018-11-21T15:00:23.633Z,5.61
2018-11-21T15:02:51.688Z,5.59
2018-11-21T15:05:19.763Z,5.46
2018-11-21T15:07:48.098Z,5.42
2018-11-21T15:10:16.205Z,5.46
2018-11-21T15:12:44.289Z,5.40
2018-11-21T15:15:14.790Z,5.40
2018-11-21T15:17:42.881Z,5.52
2018-11-21T15:20:13.401Z,5.44
2018-11-21T15:22:41.464Z,5.51
2018-11-21T15:25:11.884Z,5.48
2018-11-21T15:27:40.248Z,5.39
2018-11-21T15:30:28.963Z,5.45
2018-11-21T15:32:57.064Z,5.42
2018-11-21T15:35:25.253Z,5.31
2018-11-21T15:37:53.351Z,5.35
2018-11-21T15:40:22.663Z,5.31
2018-11-21T15:42:50.881Z,5.37
2018-11-21T15:45:20.403Z,5.33
2018-11-21T15:48:08.013Z,5.27
2018-11-21T15:50:36.044Z,5.27
2018-11-21T15:53:04.130Z,5.25
2018-11-21T15:55:32.203Z,5.26
2018-11-21T15:58:00.277Z,5.31
2018-11-21T16:00:29.932Z,5.19
2018-11-21T16:03:00.366Z,5.18
2018-11-21T16:05:28.408Z,5.22
2018-11-21T16:07:57.538Z,5.21
2018-11-21T16:10:26.200Z,5.20
2018-11-21T16:12:54.283Z,5.07
2018-11-21T16:15:24.600Z,5.15
2018-11-21T16:17:52.676Z,5.25
2018-11-21T16:20:20.953Z,5.23
2018-11-21T16:22:49.071Z,5.31
2018-11-21T16:25:18.638Z,5.24
2018-11-21T16:27:46.780Z,5.19
2018-11-21T16:30:19.498Z,5.19
2018-11-21T16:33:07.184Z,5.29
2018-11-21T16:35:35.418Z,5.25
2018-11-21T16:38:03.716Z,5.38
2018-11-21T16:40:32.921Z,5.25
2018-11-21T16:43:01.432Z,5.34
2018-11-21T16:48:24.629Z,5.40
2018-11-21T16:50:52.721Z,5.25
2018-11-21T16:53:40.075Z,5.35
2018-11-21T16:56:08.608Z,5.35
2018-11-21T16:58:37.230Z,5.28
2018-11-21T17:01:05.565Z,5.30
2018-11-21T17:03:33.680Z,5.41
2018-11-21T17:06:01.790Z,5.39
2018-11-21T17:08:30.395Z,5.26
2018-11-21T17:10:58.477Z,5.33
2018-11-21T17:13:26.575Z,5.27
2018-11-21T17:15:55.520Z,5.18
2018-11-21T17:18:23.633Z,5.23
2018-11-21T17:20:54.508Z,5.30
2018-11-21T17:23:23.033Z,5.28
2018-11-21T17:25:51.240Z,5.28
2018-11-21T17:28:19.767Z,5.37
2018-11-21T17:30:48.061Z,5.38
2018-11-21T17:33:16.190Z,5.40
2018-11-21T17:38:41.016Z,5.38
2018-11-21T17:41:09.138Z,5.36
2018-11-21T17:43:39.290Z,5.48
2018-11-21T17:46:07.891Z,5.40
2018-11-21T17:48:38.790Z,5.46
2018-11-21T17:54:03.004Z,5.49
2018-11-21T17:56:31.448Z,5.36
2018-11-21T17:59:02.926Z,5.54
2018-11-21T18:01:32.676Z,5.59
2018-11-21T18:07:05.973Z,5.48
2018-11-21T18:12:08.153Z,5.56
2018-11-21T18:14:36.761Z,5.53
2018-11-21T18:17:04.821Z,5.46
2018-11-21T18:19:32.948Z,5.61
2018-11-21T18:22:01.039Z,5.66
2018-11-21T18:24:29.314Z,5.73
2018-11-21T18:26:58.080Z,5.61
2018-11-21T18:29:26.172Z,5.72
2018-11-21T18:31:54.641Z,5.77
2018-11-21T18:34:25.426Z,5.75
2018-11-21T18:36:53.494Z,5.76
2018-11-21T18:39:21.564Z,5.78
2018-11-21T18:41:49.633Z,5.79
2018-11-21T18:44:17.910Z,5.73
2018-11-21T18:46:45.962Z,5.68
2018-11-21T18:49:14.109Z,5.75
2018-11-21T18:51:42.282Z,5.76
2018-11-21T18:54:10.440Z,5.83
2018-11-21T19:02:36.720Z,5.67
2018-11-21T19:05:06.006Z,5.66
2018-11-21T19:10:30.238Z,5.69
2018-11-21T19:12:58.611Z,5.63
2018-11-21T19:15:27.031Z,5.61
2018-11-21T19:17:55.341Z,5.71
2018-11-21T19:20:23.731Z,5.75
2018-11-21T19:22:52.064Z,5.63
2018-11-21T19:25:20.482Z,5.63
2018-11-21T19:27:48.837Z,5.64
2018-11-21T19:30:20.011Z,5.50
2018-11-21T19:32:49.485Z,5.54
2018-11-21T19:35:26.635Z,5.57
2018-11-21T19:56:12.566Z,5.57
2018-11-21T19:58:54.159Z,5.62
2018-11-21T20:43:32.104Z,5.33
2018-11-21T20:55:52.272Z,5.39
2018-11-21T20:58:45.869Z,5.39
2018-11-21T21:04:23.720Z,5.36
2018-11-21T21:10:04.709Z,5.43
2018-11-21T21:28:14.166Z,5.24
2018-11-21T21:30:59.234Z,5.28
2018-11-21T21:33:52.254Z,5.26
2018-11-21T21:36:41.274Z,5.30
2018-11-21T21:42:41.754Z,5.24
2018-11-21T21:45:38.307Z,5.24
2018-11-21T21:54:16.315Z,5.23
2018-11-21T21:57:07.765Z,5.17
2018-11-21T22:12:29.310Z,5.17
2018-11-21T22:33:14.897Z,5.22
2018-11-21T22:47:16.945Z,5.18
2018-11-21T22:59:02.310Z,5.26
2018-11-21T23:01:43.819Z,5.34
2018-11-21T23:18:49.639Z,5.07
2018-11-21T23:57:40.258Z,5.13
